createdAt,value
2017-10-19T00:01:59.290Z,97595.05
2017-10-19T00:04:27.015Z,97594.11
2017-10-19T00:06:54.593Z,97586.49
2017-10-19T00:09:22.553Z,97584.16
2017-10-19T00:11:50.320Z,97587.30
2017-10-19T00:14:17.928Z,97580.41
2017-10-19T00:16:45.585Z,97589.64
2017-10-19T00:19:15.863Z,97600.00
2017-10-19T00:21:43.556Z,97595.91
2017-10-19T00:24:11.296Z,97593.12
2017-10-19T00:26:40.744Z,97589.46
2017-10-19T00:29:09.660Z,97587.09
2017-10-19T00:31:38.988Z,97590.02
2017-10-19T00:34:08.786Z,97582.59
2017-10-19T00:36:38.659Z,97585.75
2017-10-19T00:39:08.155Z,97584.78
2017-10-19T00:41:36.099Z,97579.55
2017-10-19T00:44:06.084Z,97579.78
2017-10-19T00:46:33.752Z,97586.33
2017-10-19T00:49:01.779Z,97579.45
2017-10-19T00:51:30.325Z,97578.11
2017-10-19T00:53:58.056Z,97573.84
2017-10-19T00:56:25.775Z,97576.82
2017-10-19T00:58:53.500Z,97572.28
2017-10-19T01:01:21.902Z,97573.91
2017-10-19T01:03:50.314Z,97566.48
2017-10-19T01:06:18.045Z,97565.40
2017-10-19T01:08:46.673Z,97572.05
2017-10-19T01:11:14.540Z,97574.53
2017-10-19T01:13:42.700Z,97578.04
2017-10-19T01:16:11.556Z,97573.25
2017-10-19T01:18:39.645Z,97571.00
2017-10-19T01:21:09.366Z,97568.41
2017-10-19T01:23:37.900Z,97566.37
2017-10-19T01:26:06.985Z,97551.97
2017-10-19T01:28:34.765Z,97560.86
2017-10-19T01:31:02.567Z,97566.28
2017-10-19T01:33:30.289Z,97560.25
2017-10-19T01:36:00.051Z,97557.86
2017-10-19T01:38:28.061Z,97560.73
2017-10-19T01:40:55.787Z,97550.53
2017-10-19T01:43:23.511Z,97552.92
2017-10-19T01:45:51.277Z,97552.67
2017-10-19T01:48:19.049Z,97550.57
2017-10-19T01:50:47.425Z,97549.44
2017-10-19T01:53:15.157Z,97547.36
2017-10-19T01:55:42.872Z,97549.53
2017-10-19T01:58:11.463Z,97548.84
2017-10-19T02:00:40.460Z,97548.73
2017-10-19T02:03:08.085Z,97548.91
2017-10-19T02:05:36.512Z,97539.69
2017-10-19T02:08:04.136Z,97531.30
2017-10-19T02:10:32.469Z,97543.47
2017-10-19T02:13:00.150Z,97543.72
2017-10-19T02:15:27.764Z,97539.47
2017-10-19T02:17:55.280Z,97546.37
2017-10-19T02:20:22.862Z,97543.64
2017-10-19T02:22:50.475Z,97547.90
2017-10-19T02:25:20.101Z,97541.20
2017-10-19T02:27:47.791Z,97542.70
2017-10-19T02:30:15.421Z,97534.88
2017-10-19T02:32:43.030Z,97531.11
2017-10-19T02:35:11.771Z,97531.13
2017-10-19T02:37:40.329Z,97539.26
2017-10-19T02:40:08.011Z,97537.20
2017-10-19T02:42:35.739Z,97534.75
2017-10-19T02:45:03.341Z,97533.86
2017-10-19T02:47:31.780Z,97528.59
2017-10-19T02:50:00.571Z,97532.87
2017-10-19T02:52:28.323Z,97531.67
2017-10-19T02:54:58.142Z,97537.29
2017-10-19T02:57:25.930Z,97535.91
2017-10-19T02:59:53.596Z,97541.55
2017-10-19T03:02:21.456Z,97538.30
2017-10-19T03:04:50.565Z,97533.58
2017-10-19T03:07:19.171Z,97538.24
2017-10-19T03:09:47.403Z,97542.52
2017-10-19T03:12:18.618Z,97540.98
2017-10-19T03:14:47.181Z,97539.70
2017-10-19T03:17:15.847Z,97541.70
2017-10-19T03:19:43.607Z,97543.02
2017-10-19T03:22:11.209Z,97540.98
2017-10-19T03:24:38.991Z,97546.23
2017-10-19T03:27:06.642Z,97539.05
2017-10-19T03:29:35.200Z,97547.16
2017-10-19T03:32:04.848Z,97542.27
2017-10-19T03:34:33.551Z,97547.33
2017-10-19T03:37:02.471Z,97538.64
2017-10-19T03:39:30.488Z,97544.41
2017-10-19T03:41:58.049Z,97538.30
2017-10-19T03:44:25.585Z,97534.64
2017-10-19T03:46:53.320Z,97531.27
2017-10-19T03:49:21.058Z,97529.92
2017-10-19T03:51:49.592Z,97530.41
2017-10-19T03:54:18.249Z,97524.09
2017-10-19T03:56:46.410Z,97519.84
2017-10-19T03:59:14.471Z,97516.95
2017-10-19T04:01:42.173Z,97521.98
2017-10-19T04:04:10.047Z,97524.72
2017-10-19T04:06:38.262Z,97525.42
2017-10-19T04:09:06.988Z,97526.27
2017-10-19T04:11:34.599Z,97521.17
2017-10-19T04:14:03.017Z,97513.89
2017-10-19T04:16:31.154Z,97515.53
2017-10-19T04:18:59.023Z,97515.05
2017-10-19T04:21:27.590Z,97516.58
2017-10-19T04:23:56.916Z,97514.73
2017-10-19T04:26:24.592Z,97528.73
2017-10-19T04:28:52.689Z,97524.94
2017-10-19T04:31:21.588Z,97522.30
2017-10-19T04:33:50.205Z,97519.75
2017-10-19T04:36:19.191Z,97509.96
2017-10-19T04:38:46.848Z,97504.64
2017-10-19T04:41:14.395Z,97497.05
2017-10-19T04:43:41.937Z,97504.81
2017-10-19T04:46:10.173Z,97501.45
2017-10-19T04:48:37.772Z,97514.30
2017-10-19T04:51:05.311Z,97517.73
2017-10-19T04:53:32.900Z,97517.47
2017-10-19T04:56:00.502Z,97505.47
2017-10-19T04:58:28.101Z,97499.08
2017-10-19T05:00:56.286Z,97502.94
2017-10-19T05:03:23.950Z,97505.68
2017-10-19T05:05:52.550Z,97506.69
2017-10-19T05:08:20.061Z,97509.92
2017-10-19T05:10:49.400Z,97502.63
2017-10-19T05:13:17.157Z,97503.59
2017-10-19T05:15:45.550Z,97509.47
2017-10-19T05:18:13.137Z,97515.97
2017-10-19T05:20:40.719Z,97519.14
2017-10-19T05:23:08.326Z,97525.13
2017-10-19T05:25:35.930Z,97528.12
2017-10-19T05:28:03.620Z,97526.30
2017-10-19T05:30:31.321Z,97528.84
2017-10-19T05:32:59.979Z,97532.05
2017-10-19T05:35:27.639Z,97528.86
2017-10-19T05:37:55.132Z,97526.58
2017-10-19T05:40:22.632Z,97517.32
2017-10-19T05:42:50.245Z,97516.43
2017-10-19T05:45:17.949Z,97513.14
2017-10-19T05:47:45.420Z,97513.09
2017-10-19T05:50:12.916Z,97514.97
2017-10-19T05:52:40.442Z,97523.52
2017-10-19T05:55:08.029Z,97520.78
2017-10-19T05:57:35.565Z,97514.98
2017-10-19T06:00:03.506Z,97514.33
2017-10-19T06:02:33.085Z,97525.04
2017-10-19T06:05:00.778Z,97539.89
2017-10-19T06:07:29.274Z,97541.03
2017-10-19T06:09:56.894Z,97536.44
2017-10-19T06:12:24.431Z,97538.31
2017-10-19T06:14:52.010Z,97537.52
2017-10-19T06:17:31.727Z,97529.07
2017-10-19T06:19:59.257Z,97532.09
2017-10-19T06:22:26.844Z,97535.09
2017-10-19T06:24:54.357Z,97529.13
2017-10-19T06:27:21.912Z,97533.89
2017-10-19T06:29:49.429Z,97535.93
2017-10-19T06:32:17.004Z,97529.05
2017-10-19T06:34:44.546Z,97534.53
2017-10-19T06:37:12.099Z,97533.45
2017-10-19T06:39:39.774Z,97535.88
2017-10-19T06:42:07.338Z,97526.41
2017-10-19T06:44:34.899Z,97522.60
2017-10-19T06:47:03.809Z,97532.02
2017-10-19T06:49:31.368Z,97542.47
2017-10-19T06:51:58.859Z,97540.28
2017-10-19T06:54:26.401Z,97545.16
2017-10-19T06:56:53.920Z,97546.21
2017-10-19T06:59:21.435Z,97545.60
2017-10-19T07:01:48.986Z,97556.00
2017-10-19T07:04:16.509Z,97559.80
2017-10-19T07:06:44.043Z,97562.05
2017-10-19T07:09:11.580Z,97555.00
2017-10-19T07:11:39.124Z,97559.41
2017-10-19T07:14:06.733Z,97562.23
2017-10-19T07:16:34.391Z,97563.11
2017-10-19T07:19:01.953Z,97562.74
2017-10-19T07:21:29.524Z,97559.50
2017-10-19T07:23:57.148Z,97559.45
2017-10-19T07:26:24.721Z,97558.30
2017-10-19T07:28:52.341Z,97559.93
2017-10-19T07:31:19.833Z,97567.22
2017-10-19T07:33:47.474Z,97571.72
2017-10-19T07:36:16.428Z,97577.83
2017-10-19T07:38:44.511Z,97582.71
2017-10-19T07:41:13.399Z,97581.81
2017-10-19T07:43:41.339Z,97583.42
2017-10-19T07:46:09.251Z,97581.03
2017-10-19T07:48:36.969Z,97585.87
2017-10-19T07:51:04.623Z,97591.50
2017-10-19T07:53:33.126Z,97588.45
2017-10-19T07:56:00.846Z,97585.75
2017-10-19T08:01:03.876Z,97587.60
2017-10-19T08:03:31.495Z,97594.13
2017-10-19T08:05:59.227Z,97590.16
2017-10-19T08:08:26.966Z,97592.73
2017-10-19T08:11:03.251Z,97596.03
2017-10-19T08:13:32.219Z,97595.45
2017-10-19T08:16:02.055Z,97594.00
2017-10-19T08:18:29.805Z,97596.55
2017-10-19T08:20:58.558Z,97592.39
2017-10-19T08:23:26.273Z,97590.86
2017-10-19T08:25:55.130Z,97596.48
2017-10-19T08:28:23.054Z,97590.53
2017-10-19T08:30:51.857Z,97596.85
2017-10-19T08:36:00.418Z,97592.84
2017-10-19T08:38:28.777Z,97600.13
2017-10-19T08:43:53.522Z,97604.37
2017-10-19T08:59:53.100Z,97615.74
2017-10-19T09:02:20.685Z,97610.52
2017-10-19T09:04:49.226Z,97620.75
2017-10-19T09:07:16.859Z,97622.81
2017-10-19T09:09:44.540Z,97612.23
2017-10-19T09:12:12.423Z,97604.95
2017-10-19T09:14:41.837Z,97609.78
2017-10-19T09:17:09.745Z,97610.32
2017-10-19T09:19:37.389Z,97610.23
2017-10-19T09:22:04.920Z,97600.05
2017-10-19T09:24:32.560Z,97596.63
2017-10-19T09:27:00.336Z,97600.44
2017-10-19T09:29:28.152Z,97593.52
2017-10-19T09:31:55.781Z,97590.98
2017-10-19T09:34:23.305Z,97591.95
2017-10-19T09:36:50.982Z,97598.65
2017-10-19T09:39:18.560Z,97592.76
2017-10-19T09:41:46.104Z,97600.00
2017-10-19T09:44:15.155Z,97602.42
2017-10-19T09:46:43.491Z,97601.80
2017-10-19T09:49:11.001Z,97590.89
2017-10-19T09:51:38.568Z,97600.80
2017-10-19T09:54:06.143Z,97605.39
2017-10-19T09:56:33.703Z,97604.36
2017-10-19T09:59:01.277Z,97604.53
2017-10-19T10:01:28.883Z,97595.84
2017-10-19T10:03:56.452Z,97593.55
2017-10-19T10:06:24.006Z,97587.36
2017-10-19T10:08:51.610Z,97597.44
2017-10-19T10:11:19.131Z,97598.41
2017-10-19T10:13:46.760Z,97597.23
2017-10-19T10:16:14.277Z,97595.66
2017-10-19T10:18:41.855Z,97605.00
2017-10-19T10:21:09.390Z,97605.57
2017-10-19T10:23:36.909Z,97608.50
2017-10-19T10:26:04.511Z,97603.05
2017-10-19T10:28:32.064Z,97604.88
2017-10-19T10:30:59.659Z,97599.28
2017-10-19T10:33:27.212Z,97595.53
2017-10-19T10:35:54.773Z,97597.70
2017-10-19T10:38:22.350Z,97586.42
2017-10-19T10:40:49.846Z,97592.36
2017-10-19T10:43:17.567Z,97587.49
2017-10-19T10:45:45.252Z,97581.09
2017-10-19T10:48:12.855Z,97579.34
2017-10-19T10:50:40.540Z,97573.54
2017-10-19T10:53:08.415Z,97583.06
2017-10-19T10:55:46.043Z,97579.20
2017-10-19T10:58:13.587Z,97575.30
2017-10-19T11:00:41.145Z,97581.52
2017-10-19T11:03:08.817Z,97573.59
2017-10-19T11:05:36.415Z,97576.24
2017-10-19T11:08:03.942Z,97563.53
2017-10-19T11:10:31.484Z,97562.34
2017-10-19T11:12:59.099Z,97565.11
2017-10-19T11:15:26.765Z,97557.34
2017-10-19T11:17:54.318Z,97553.29
2017-10-19T11:20:22.122Z,97543.94
2017-10-19T11:22:50.158Z,97546.70
2017-10-19T11:25:17.659Z,97539.87
2017-10-19T11:27:46.532Z,97514.00
2017-10-19T11:30:14.293Z,97528.60
2017-10-19T11:32:42.109Z,97493.75
2017-10-19T11:35:09.836Z,97511.66
2017-10-19T11:37:37.423Z,97511.27
2017-10-19T11:40:05.064Z,97506.30
2017-10-19T11:42:32.676Z,97511.56
2017-10-19T11:45:01.472Z,97504.16
2017-10-19T11:47:29.794Z,97501.61
2017-10-19T11:49:57.581Z,97498.38
2017-10-19T11:52:25.878Z,97494.50
2017-10-19T11:54:53.548Z,97494.69
2017-10-19T11:57:21.323Z,97483.11
2017-10-19T11:59:49.746Z,97481.45
2017-10-19T12:02:22.655Z,97463.08
2017-10-19T12:04:50.556Z,97475.08
2017-10-19T12:07:18.312Z,97470.00
2017-10-19T12:09:47.209Z,97467.86
2017-10-19T12:12:15.017Z,97466.61
2017-10-19T12:14:43.771Z,97469.06
2017-10-19T12:17:11.489Z,97463.87
2017-10-19T12:19:39.175Z,97458.31
2017-10-19T12:22:07.257Z,97455.83
2017-10-19T12:24:37.419Z,97460.09
2017-10-19T12:27:05.484Z,97448.25
2017-10-19T12:29:33.684Z,97451.69
2017-10-19T12:32:01.275Z,97445.89
2017-10-19T12:34:29.756Z,97447.78
2017-10-19T12:37:06.474Z,97444.41
2017-10-19T12:39:34.550Z,97435.03
2017-10-19T12:42:02.389Z,97432.69
2017-10-19T12:44:30.107Z,97426.45
2017-10-19T12:46:57.828Z,97426.75
2017-10-19T12:49:25.930Z,97425.22
2017-10-19T12:51:53.827Z,97432.89
2017-10-19T12:54:21.841Z,97423.98
2017-10-19T12:56:49.642Z,97426.94
2017-10-19T12:59:17.412Z,97426.95
2017-10-19T13:04:19.081Z,97425.09
2017-10-19T13:06:46.700Z,97416.15
2017-10-19T13:09:14.380Z,97419.08
2017-10-19T13:11:42.672Z,97409.54
2017-10-19T13:14:10.419Z,97412.52
2017-10-19T13:16:38.057Z,97409.20
2017-10-19T13:19:05.815Z,97402.78
2017-10-19T13:21:33.600Z,97407.14
2017-10-19T13:24:01.962Z,97393.05
2017-10-19T13:26:30.230Z,97399.02
2017-10-19T13:28:59.105Z,97406.22
2017-10-19T13:31:26.955Z,97399.79
2017-10-19T13:33:54.654Z,97405.77
2017-10-19T13:36:22.422Z,97406.56
2017-10-19T13:38:50.735Z,97401.42
2017-10-19T13:41:19.210Z,97404.61
2017-10-19T13:43:47.247Z,97407.63
2017-10-19T13:46:14.917Z,97403.27
2017-10-19T13:48:45.175Z,97403.34
2017-10-19T13:51:12.737Z,97399.78
2017-10-19T13:53:41.015Z,97400.08
2017-10-19T13:56:08.638Z,97390.68
2017-10-19T13:58:36.281Z,97396.51
2017-10-19T14:01:04.115Z,97386.98
2017-10-19T14:03:32.323Z,97388.63
2017-10-19T14:05:59.937Z,97388.00
2017-10-19T14:08:27.538Z,97388.04
2017-10-19T14:10:55.108Z,97390.67
2017-10-19T14:13:23.395Z,97386.61
2017-10-19T14:15:51.147Z,97395.25
2017-10-19T14:18:18.808Z,97393.16
2017-10-19T14:20:46.453Z,97392.01
2017-10-19T14:23:14.081Z,97392.54
2017-10-19T14:25:41.594Z,97390.61
2017-10-19T14:28:10.371Z,97388.09
2017-10-19T14:30:37.944Z,97384.75
2017-10-19T14:33:06.102Z,97372.98
2017-10-19T14:35:34.612Z,97377.31
2017-10-19T14:38:02.240Z,97382.67
2017-10-19T14:40:29.944Z,97377.19
2017-10-19T14:42:57.676Z,97381.32
2017-10-19T14:45:25.428Z,97380.91
2017-10-19T14:47:53.773Z,97380.17
2017-10-19T14:50:21.485Z,97386.45
2017-10-19T14:52:49.150Z,97358.21
2017-10-19T14:55:16.915Z,97378.19
2017-10-19T14:57:44.521Z,97373.75
2017-10-19T15:00:12.929Z,97374.33
2017-10-19T15:02:40.588Z,97371.55
2017-10-19T15:05:08.170Z,97369.98
2017-10-19T15:07:35.786Z,97364.28
2017-10-19T15:10:03.323Z,97369.27
2017-10-19T15:12:30.853Z,97368.93
2017-10-19T15:14:58.424Z,97365.21
2017-10-19T15:17:26.066Z,97367.03
2017-10-19T15:19:53.649Z,97360.93
2017-10-19T15:22:21.253Z,97362.90
2017-10-19T15:24:48.842Z,97354.02
2017-10-19T15:27:16.400Z,97358.03
2017-10-19T15:29:44.477Z,97356.54
2017-10-19T15:32:12.019Z,97358.28
2017-10-19T15:34:39.639Z,97366.02
2017-10-19T15:37:07.313Z,97358.14
2017-10-19T15:39:34.898Z,97360.80
2017-10-19T15:42:02.463Z,97361.80
2017-10-19T15:44:30.042Z,97359.93
2017-10-19T15:46:57.640Z,97372.73
2017-10-19T15:49:25.243Z,97363.91
2017-10-19T15:51:52.844Z,97367.53
2017-10-19T15:54:21.351Z,97373.88
2017-10-19T15:56:48.968Z,97377.09
2017-10-19T15:59:16.844Z,97372.59
2017-10-19T16:01:44.510Z,97374.72
2017-10-19T16:04:12.282Z,97371.23
2017-10-19T16:06:39.777Z,97378.66
2017-10-19T16:09:09.076Z,97374.98
2017-10-19T16:11:37.599Z,97376.41
2017-10-19T16:14:05.313Z,97380.53
2017-10-19T16:16:32.979Z,97378.13
2017-10-19T16:19:01.463Z,97377.25
2017-10-19T16:21:29.146Z,97374.78
2017-10-19T16:23:57.853Z,97379.95
2017-10-19T16:26:25.403Z,97378.91
2017-10-19T16:28:56.092Z,97384.09
2017-10-19T16:31:23.732Z,97385.16
2017-10-19T16:33:51.267Z,97377.36
2017-10-19T16:36:18.804Z,97384.72
2017-10-19T16:38:46.526Z,97386.95
2017-10-19T16:41:14.145Z,97386.41
2017-10-19T16:43:41.955Z,97387.69
2017-10-19T16:46:09.532Z,97389.16
2017-10-19T16:48:38.084Z,97393.47
2017-10-19T16:51:06.765Z,97396.11
2017-10-19T16:53:34.605Z,97395.27
2017-10-19T16:56:02.237Z,97398.79
2017-10-19T16:58:29.900Z,97401.92
2017-10-19T17:00:57.523Z,97405.94
2017-10-19T17:03:28.061Z,97385.91
2017-10-19T17:05:55.686Z,97403.95
2017-10-19T17:08:23.377Z,97403.80
2017-10-19T17:10:51.194Z,97409.99
2017-10-19T17:13:20.179Z,97406.48
2017-10-19T17:15:48.020Z,97413.11
2017-10-19T17:18:16.898Z,97413.52
2017-10-19T17:20:44.755Z,97411.03
2017-10-19T17:23:14.653Z,97416.01
2017-10-19T17:25:42.528Z,97416.92
2017-10-19T17:28:11.990Z,97419.71
2017-10-19T17:30:39.962Z,97423.55
2017-10-19T17:33:08.082Z,97427.70
2017-10-19T17:35:36.405Z,97414.22
2017-10-19T17:38:04.084Z,97418.34
2017-10-19T17:40:32.991Z,97414.16
2017-10-19T17:43:02.718Z,97416.91
2017-10-19T17:45:33.016Z,97415.43
2017-10-19T17:48:01.686Z,97414.98
2017-10-19T17:50:31.393Z,97414.78
2017-10-19T17:52:59.679Z,97409.83
2017-10-19T17:55:27.521Z,97407.59
2017-10-19T17:57:56.365Z,97406.30
2017-10-19T18:00:24.252Z,97415.50
2017-10-19T18:02:53.124Z,97415.19
2017-10-19T18:05:20.908Z,97414.64
2017-10-19T18:07:50.745Z,97413.84
2017-10-19T18:10:20.121Z,97414.63
2017-10-19T18:12:49.966Z,97417.26
2017-10-19T18:15:18.818Z,97413.09
2017-10-19T18:17:47.025Z,97410.73
2017-10-19T18:20:14.922Z,97405.89
2017-10-19T18:22:42.783Z,97410.86
2017-10-19T18:25:11.546Z,97411.92
2017-10-19T18:27:40.511Z,97416.64
2017-10-19T18:30:08.855Z,97415.19
2017-10-19T18:32:36.534Z,97409.69
2017-10-19T18:35:04.455Z,97409.59
2017-10-19T18:37:32.221Z,97414.32
2017-10-19T18:40:00.537Z,97407.70
2017-10-19T18:42:28.628Z,97410.72
2017-10-19T18:44:56.583Z,97406.07
2017-10-19T18:49:58.358Z,97399.91
2017-10-19T18:52:26.396Z,97394.48
2017-10-19T18:54:54.329Z,97394.96
2017-10-19T18:57:22.298Z,97397.47
2017-10-19T18:59:50.255Z,97399.63
2017-10-19T19:02:18.168Z,97402.09
2017-10-19T19:04:46.117Z,97405.12
2017-10-19T19:07:14.115Z,97391.30
2017-10-19T19:09:42.106Z,97401.85
2017-10-19T19:12:13.246Z,97402.19
2017-10-19T19:14:41.235Z,97406.19
2017-10-19T19:17:10.205Z,97399.65
2017-10-19T19:19:38.082Z,97400.78
2017-10-19T19:22:07.591Z,97394.45
2017-10-19T19:24:35.764Z,97395.00
2017-10-19T19:27:04.558Z,97395.74
2017-10-19T19:29:32.509Z,97384.05
2017-10-19T19:32:01.573Z,97387.16
2017-10-19T19:34:29.481Z,97394.27
2017-10-19T19:36:57.470Z,97363.91
2017-10-19T19:39:25.601Z,97398.27
2017-10-19T19:41:54.431Z,97395.80
2017-10-19T19:44:23.413Z,97396.80
2017-10-19T19:46:51.469Z,97405.12
2017-10-19T19:49:21.044Z,97404.86
2017-10-19T19:51:49.598Z,97409.16
2017-10-19T19:54:19.619Z,97414.66
2017-10-19T19:56:47.908Z,97413.95
2017-10-19T19:59:15.957Z,97389.51
2017-10-19T20:01:44.079Z,97425.27
2017-10-19T20:07:15.059Z,97424.17
2017-10-19T20:09:43.522Z,97429.64
2017-10-19T20:12:12.004Z,97430.70
2017-10-19T20:14:40.097Z,97440.34
2017-10-19T20:17:09.114Z,97436.25
2017-10-19T20:19:38.619Z,97436.12
2017-10-19T20:22:06.968Z,97438.47
2017-10-19T20:24:36.067Z,97444.20
2017-10-19T20:27:05.868Z,97448.73
2017-10-19T20:29:33.839Z,97443.02
2017-10-19T20:32:04.095Z,97439.04
2017-10-19T20:34:33.424Z,97434.88
2017-10-19T20:37:02.985Z,97436.72
2017-10-19T20:39:31.733Z,97414.48
2017-10-19T20:42:03.612Z,97397.48
2017-10-19T20:44:32.960Z,97445.86
2017-10-19T20:47:01.659Z,97438.08
2017-10-19T20:49:30.457Z,97438.72
2017-10-19T20:52:00.859Z,97433.52
2017-10-19T20:54:28.492Z,97427.72
2017-10-19T20:56:58.730Z,97426.86
2017-10-19T20:59:27.706Z,97423.11
2017-10-19T21:01:55.617Z,97427.89
2017-10-19T21:04:23.507Z,97332.54
2017-10-19T21:06:51.165Z,97437.52
2017-10-19T21:09:19.701Z,97440.30
2017-10-19T21:11:48.296Z,97441.00
2017-10-19T21:14:17.009Z,97429.94
2017-10-19T21:16:44.605Z,97427.56
2017-10-19T21:19:13.405Z,97428.93
2017-10-19T21:21:41.143Z,97422.23
2017-10-19T21:24:09.804Z,97421.38
2017-10-19T21:26:37.358Z,97429.06
2017-10-19T21:29:05.755Z,97411.27
2017-10-19T21:31:34.934Z,97408.08
2017-10-19T21:34:03.439Z,97408.14
2017-10-19T21:36:32.701Z,97407.99
2017-10-19T21:39:02.098Z,97402.91
2017-10-19T21:41:31.537Z,97402.45
2017-10-19T21:43:59.879Z,97402.91
2017-10-19T21:46:28.952Z,97401.34
2017-10-19T21:48:56.886Z,97395.68
2017-10-19T21:51:24.553Z,97403.56
2017-10-19T21:53:52.204Z,97398.61
2017-10-19T21:56:20.692Z,97387.01
2017-10-19T21:58:48.440Z,97392.17
2017-10-19T22:01:17.034Z,97392.25
2017-10-19T22:03:45.714Z,97391.07
2017-10-19T22:06:14.377Z,97388.38
2017-10-19T22:08:42.331Z,97391.48
2017-10-19T22:11:10.068Z,97387.66
2017-10-19T22:13:37.733Z,97387.98
2017-10-19T22:16:05.994Z,97386.06
2017-10-19T22:18:33.699Z,97383.35
2017-10-19T22:21:01.559Z,97379.93
2017-10-19T22:23:29.388Z,97377.28
2017-10-19T22:25:57.949Z,97394.80
2017-10-19T22:28:28.230Z,97382.44
2017-10-19T22:30:56.053Z,97396.56
2017-10-19T22:33:23.982Z,97379.78
2017-10-19T22:35:52.078Z,97331.84
2017-10-19T22:38:19.652Z,97372.63
2017-10-19T22:40:50.271Z,97366.20
2017-10-19T22:43:17.925Z,97360.17
2017-10-19T22:45:46.966Z,97356.75
2017-10-19T22:48:14.538Z,97352.33
2017-10-19T22:50:42.919Z,97359.22
2017-10-19T22:53:11.319Z,97364.34
2017-10-19T22:55:39.212Z,97366.59
2017-10-19T22:58:06.725Z,97378.19
2017-10-19T23:00:34.430Z,97389.20
2017-10-19T23:03:01.947Z,97390.87
2017-10-19T23:05:30.398Z,97393.20
2017-10-19T23:07:58.881Z,97392.39
2017-10-19T23:12:59.784Z,97386.65
2017-10-19T23:15:27.463Z,97388.40
2017-10-19T23:17:55.205Z,97389.18
2017-10-19T23:20:22.892Z,97389.91
2017-10-19T23:22:51.107Z,97393.44
2017-10-19T23:25:18.799Z,97392.47
2017-10-19T23:27:46.328Z,97389.02
2017-10-19T23:30:15.574Z,97386.65
2017-10-19T23:32:46.159Z,97389.27
2017-10-19T23:35:13.867Z,97389.24
2017-10-19T23:37:43.533Z,97390.75
2017-10-19T23:40:12.275Z,97388.34
2017-10-19T23:42:40.107Z,97398.76
2017-10-19T23:45:07.802Z,97394.91
2017-10-19T23:47:36.353Z,97396.05
2017-10-19T23:50:03.952Z,97395.83
2017-10-19T23:52:32.433Z,97392.44
2017-10-19T23:55:00.111Z,97395.00
2017-10-19T23:57:27.803Z,97395.20
2017-10-19T23:59:55.442Z,97393.55
